Airfield :
LOGIN :

Register | Disclaimer

   EN    FR    IT 

 










Legend :    VFR   Marginal VFR   IFR   Intensive IFR   Very Intensive IFR
Visi :
Ceiling :
>= 8 km
>= 3000ft
5 to 8 km
1000 to 3000 ft
1500m to 5 km
500 to 1000 ft
800 to 1500m
200 to 500 ft
< 800m
< 200 ft
Symbols :   Thunderstorms  Fog  Heavy snow  Heavy precipitations  Wind > 20 kt
SIGMETs :     Misc.  Thunderstorms  Icing  Turbulence  Mountain Waves  Volcanic Ashes







- Airport Elevation : 124 ft
- IATA code : RNS
- Download approach charts


LFRN - Rennes

CURRENT METAR :
  • 152030Z AUTO 26008KT 9999 FEW027 BKN036 10/08 Q1010 NOSIG

EXPIRED METARs :
  • 152000Z AUTO 28015KT 9999 FEW015 BKN038 11/08 Q1009 NOSIG
  • 151930Z AUTO 27007KT 9999 BKN019 OVC026 12/11 Q1008 NOSIG
  • 151900Z AUTO 27009KT 9999 BKN018 BKN023 OVC034 13/11 Q1008 NOSIG
  • 151830Z AUTO 25011KT 9999 SCT013 BKN018 BKN023 13/13 Q1007 NOSIG
  • 151800Z AUTO 22011KT 9999 BKN010 OVC014 13/13 Q1006 TEMPO 3000 RA BECMG BKN030

TAF AMD TAF LFRN
Valid from the 15 at 18:00 until the 16 at 18:00 UTC


151840Z 1518/1618 24010KT 7000 BKN012
TEMPO 1518/1519 3000 RA OVC005
BECMG 1519/1521 BKN030
PROB30
TEMPO 1600/1606 4000 SHRA SCT030TCU
BECMG 1606/1608 18005KT
PROB30
TEMPO 1606/1611 3000 BR
TEMPO 1611/1617 18015G25KT 4000 SHRA BKN025CB
PROB30
TEMPO 1613/1617 2000 TSRA BKN025CB
ATIS : +33 2 99 67 72 50
No reported NOTAMs for that airfield.



MET'MAP, your aeronautical weather chart ! - Copyright ORBIFLY December 2007 - Disclaimer

ORBIFLY MET'MAP TEAM :

Programming & Development : Alexandra Zaïnal
Concept & Development : Baudouin d'Aumeries
Co-Development & Prog : Marc-Olivier Méhu
Technical & hardware support : Manuel Goepfert

Contact : metmap@orbifly.com




SOURCES & CREDITS :

   NOAA